메인 페이지
METAR-TAF:

METAR-TAF

공항 :

OR 탐보 국제공항

요하네스버그, 남아프리카공화국

위도: 26-08S, 경도: 028-14E, 고도: 1694m

현재 날씨관측

예보는 1 시간 41분 전, 08:00시(UTC)에 발표되었습니다.
서북서6kt남남서풍과 북북서풍을 오가는
온도 20°C
습도 15%
기압 1029 hPa
시정 10km 이상
1500m 미만 상공 구름 및 적란운 없음

METAR: FAOR 200800Z 29006KT 210V340 CAVOK 20/M07 Q1029 NOSIG

시각: 11:41 (09:41 UTC)

예보

예보는 5 시간 41분 전, 04:00시(UTC)에 발표되었습니다.
예보 대상 시간: 20일 06시부터 21일 12시까지 (UTC)
여러 방향의 바람 4kt
시정 10km 이상
1500m 미만 상공 구름 및 적란운 없음
전환 중
20일 08시부터 20일 10시까지 (UTC)
7kt

TAF: FAOR 200400Z 2006/2112 VRB04KT CAVOK BECMG 2008/2010 35007KT TX21/2013Z TN12/2104Z

4,000개 이상의 공항 관측 자료 및 예보 (METAR 및 TAF 보고).

지도상에서 검색 가능한 기상관측소가 노란 점과 빨간 점으로 표시되어 있습니다.

기상관측소 명을 보려면 표시 위로 마우스를 이동하세요.

날씨 관측과 예보를 보려면 클릭하세요.

지도 변경 : 확대하려면 엑스 표시가 있는 녹색 버튼, 축소하려면 빼기 표시가 있는 녹색 버튼, 다음 페이지의 지도를 보려면 녹색 화살표를 클릭하세요.


METAR-TAF: